KMMK 251253Z AUTO 00000KT 10SM CLR 23/14 A2998 RMK AO2 SLP151 T02330139 TSNO